Time;durP1;ratioP1;P1;durP2;ratioP2;P2;SDS_P1;SDS_P2;PMS_P1;PMS_P2;Temp;Humidity;BMP_temperature;BMP_pressure;BME280_temperature;BME280_humidity;BME280_pressure;Samples;Min_cycle;Max_cycle;Signal;HPM_P1;HPM_P2
2023/10/05 00:01:30;;;;;;;4.30;2.70;;;9.70;99.90;;;;;;4998779;28;20186;-32
2023/10/05 00:03:56;;;;;;;3.87;2.53;;;9.70;99.90;;;;;;4991557;28;20191;-30
2023/10/05 00:06:25;;;;;;;2.50;2.17;;;9.70;99.90;;;;;;5014906;28;20265;-31
2023/10/05 00:08:53;;;;;;;5.67;2.57;;;9.60;99.90;;;;;;4998504;28;20256;-31
2023/10/05 00:11:36;;;;;;;5.03;2.67;;;9.60;99.90;;;;;;4997768;28;20325;-31
2023/10/05 00:14:12;;;;;;;3.77;2.47;;;9.60;99.90;;;;;;4997505;28;20221;-31
2023/10/05 00:16:39;;;;;;;4.10;2.40;;;9.50;99.90;;;;;;5014995;28;20190;-31
2023/10/05 00:19:11;;;;;;;5.40;2.70;;;9.50;99.90;;;;;;5014032;28;20197;-31
2023/10/05 00:21:42;;;;;;;8.53;3.07;;;9.50;99.90;;;;;;5014989;28;20208;-31
2023/10/05 00:24:08;;;;;;;4.77;3.07;;;9.50;99.90;;;;;;5014569;28;20646;-31
2023/10/05 00:26:36;;;;;;;4.30;2.60;;;9.40;99.90;;;;;;5014559;28;20205;-31
2023/10/05 00:31:38;;;;;;;3.33;2.70;;;9.40;99.90;;;;;;5027367;28;20206;-31
2023/10/05 00:34:04;;;;;;;6.20;2.70;;;9.40;99.90;;;;;;5014148;28;20179;-31
2023/10/05 00:36:34;;;;;;;4.50;2.60;;;9.30;99.90;;;;;;5014771;28;20202;-31
2023/10/05 00:39:02;;;;;;;6.60;2.87;;;9.40;99.90;;;;;;4998252;28;20179;-31
2023/10/05 00:41:30;;;;;;;4.20;2.70;;;9.30;99.90;;;;;;5014148;28;20190;-31
2023/10/05 00:43:56;;;;;;;4.17;2.50;;;9.30;99.90;;;;;;4997718;28;20272;-31
2023/10/05 00:46:23;;;;;;;3.30;2.40;;;9.20;99.90;;;;;;5013874;28;20238;-31
2023/10/05 00:51:55;;;;;;;5.20;2.50;;;9.20;99.90;;;;;;5005283;28;20233;-31
2023/10/05 00:54:29;;;;;;;2.60;2.13;;;9.20;99.90;;;;;;5013924;28;20182;-31
2023/10/05 00:56:57;;;;;;;4.40;2.50;;;9.20;99.90;;;;;;4998101;28;20204;-30
2023/10/05 00:59:25;;;;;;;5.87;2.60;;;9.20;99.90;;;;;;5013720;28;20190;-31
2023/10/05 01:04:52;;;;;;;3.00;2.20;;;9.30;99.90;;;;;;5013125;28;20179;-31
2023/10/05 01:14:53;;;;;;;4.37;2.53;;;9.30;99.90;;;;;;5019541;28;20203;-31
2023/10/05 01:17:26;;;;;;;4.00;2.27;;;9.30;99.90;;;;;;5004747;28;20189;-31
2023/10/05 01:19:58;;;;;;;3.63;2.60;;;9.30;99.90;;;;;;5017918;28;20174;-31
2023/10/05 01:22:32;;;;;;;4.10;2.73;;;9.30;99.90;;;;;;5015934;28;20193;-31
2023/10/05 01:25:04;;;;;;;3.60;2.73;;;9.30;99.90;;;;;;5015438;28;20208;-31
2023/10/05 01:27:35;;;;;;;3.97;2.60;;;9.30;99.90;;;;;;5009925;28;20178;-31
2023/10/05 01:30:03;;;;;;;4.43;2.67;;;9.30;99.90;;;;;;5015140;28;20269;-31
2023/10/05 01:32:29;;;;;;;7.70;2.90;;;9.30;99.90;;;;;;5024544;28;20202;-32
2023/10/05 01:34:55;;;;;;;3.63;2.67;;;9.30;99.90;;;;;;5004886;28;20194;-31
2023/10/05 01:37:23;;;;;;;4.20;2.77;;;9.30;99.90;;;;;;4996911;28;20175;-30
2023/10/05 01:39:52;;;;;;;3.27;2.60;;;9.30;99.90;;;;;;5024936;28;20178;-30
2023/10/05 01:42:21;;;;;;;4.10;2.47;;;9.20;99.90;;;;;;5012000;28;20189;-30
2023/10/05 01:44:47;;;;;;;4.00;2.73;;;9.20;99.90;;;;;;5007274;28;20223;-30
2023/10/05 01:47:15;;;;;;;3.03;2.40;;;9.10;99.90;;;;;;5001618;28;20187;-30
2023/10/05 01:49:50;;;;;;;5.17;2.70;;;9.20;99.90;;;;;;5033420;28;20174;-31
2023/10/05 01:52:20;;;;;;;3.40;2.33;;;9.20;99.90;;;;;;5002487;28;20182;-31
2023/10/05 01:54:46;;;;;;;3.43;2.70;;;9.20;99.90;;;;;;5005229;28;20327;-30
2023/10/05 01:57:16;;;;;;;5.17;2.90;;;9.20;99.90;;;;;;5011386;28;20205;-30
2023/10/05 01:59:43;;;;;;;3.67;2.93;;;9.20;99.90;;;;;;5025229;28;20185;-30
2023/10/05 02:02:15;;;;;;;3.63;2.60;;;9.20;99.90;;;;;;5010778;28;20178;-30
2023/10/05 02:04:47;;;;;;;4.57;3.10;;;9.20;99.90;;;;;;5001555;28;20691;-31
2023/10/05 02:07:15;;;;;;;5.20;3.07;;;9.20;99.90;;;;;;5013252;28;20233;-30
2023/10/05 02:09:41;;;;;;;3.30;2.50;;;9.20;99.90;;;;;;5021666;28;20175;-30
2023/10/05 02:12:07;;;;;;;4.17;2.70;;;9.20;99.90;;;;;;5017266;28;20187;-31
2023/10/05 02:14:37;;;;;;;5.40;2.50;;;9.10;99.90;;;;;;5022307;28;20183;-31
2023/10/05 02:17:04;;;;;;;3.53;2.70;;;9.10;99.90;;;;;;5000207;28;20183;-30
2023/10/05 02:19:30;;;;;;;4.53;3.03;;;9.00;99.90;;;;;;5016487;28;20174;-31
2023/10/05 02:21:58;;;;;;;5.07;2.63;;;9.00;99.90;;;;;;5012888;28;20173;-31
2023/10/05 02:24:26;;;;;;;4.13;2.63;;;8.90;99.90;;;;;;5016427;28;20174;-31
2023/10/05 02:27:13;;;;;;;5.17;2.43;;;8.90;99.90;;;;;;5023532;28;20284;-31
2023/10/05 02:29:42;;;;;;;4.40;2.70;;;8.90;99.90;;;;;;5020485;28;20194;-31
2023/10/05 02:32:14;;;;;;;4.60;2.70;;;8.80;99.90;;;;;;5014875;28;20205;-31
2023/10/05 02:34:59;;;;;;;4.07;2.63;;;8.80;99.90;;;;;;4994438;28;20185;-31
2023/10/05 02:37:28;;;;;;;4.73;2.53;;;8.80;99.90;;;;;;4993179;28;20226;-31
2023/10/05 02:39:57;;;;;;;3.53;2.77;;;8.70;99.90;;;;;;5017087;28;20313;-31
2023/10/05 02:42:25;;;;;;;3.70;3.17;;;8.70;99.90;;;;;;5001949;28;20203;-29
2023/10/05 02:44:53;;;;;;;4.70;2.50;;;8.60;99.90;;;;;;5000197;28;20198;-30
2023/10/05 02:47:22;;;;;;;3.30;2.37;;;8.50;99.90;;;;;;5027842;28;20178;-30
2023/10/05 02:49:49;;;;;;;4.60;2.90;;;8.50;99.90;;;;;;4997169;28;20179;-30
2023/10/05 02:52:16;;;;;;;4.83;2.83;;;8.50;99.90;;;;;;5024120;28;20181;-30
2023/10/05 02:54:49;;;;;;;7.37;3.33;;;8.40;99.90;;;;;;5011549;28;20206;-30
2023/10/05 02:57:19;;;;;;;5.70;2.87;;;8.40;99.90;;;;;;5027766;28;20178;-30
2023/10/05 02:59:50;;;;;;;4.77;2.80;;;8.30;99.90;;;;;;5028471;28;20187;-31
2023/10/05 03:02:16;;;;;;;4.07;2.83;;;8.30;99.90;;;;;;5016625;28;20197;-30
2023/10/05 03:04:57;;;;;;;6.33;2.90;;;8.20;99.90;;;;;;5026823;28;20199;-30
2023/10/05 03:07:25;;;;;;;4.27;2.80;;;8.20;99.90;;;;;;5000026;28;20292;-30
2023/10/05 03:09:59;;;;;;;4.40;2.90;;;8.20;99.90;;;;;;5030973;28;20300;-30
2023/10/05 03:12:27;;;;;;;4.83;3.20;;;8.30;99.90;;;;;;5008663;28;20265;-30
2023/10/05 03:14:57;;;;;;;5.73;3.20;;;8.30;99.90;;;;;;5020268;28;20208;-30
2023/10/05 03:17:26;;;;;;;3.50;2.53;;;8.30;99.90;;;;;;5027820;28;20178;-30
2023/10/05 03:19:53;;;;;;;4.43;2.57;;;8.30;99.90;;;;;;5003204;28;20186;-30
2023/10/05 03:22:23;;;;;;;3.80;2.57;;;8.40;99.90;;;;;;5019279;28;20253;-31
2023/10/05 03:24:53;;;;;;;3.97;2.30;;;8.40;99.90;;;;;;5018571;28;20287;-30
2023/10/05 03:27:22;;;;;;;4.63;2.90;;;8.50;99.90;;;;;;5012403;28;20187;-31
2023/10/05 03:29:57;;;;;;;5.37;2.50;;;8.50;99.90;;;;;;5009322;28;20291;-31
2023/10/05 03:32:28;;;;;;;4.07;2.63;;;8.60;99.90;;;;;;5015991;28;20192;-31
2023/10/05 03:34:58;;;;;;;5.67;2.57;;;8.50;99.90;;;;;;5007872;28;20210;-30
2023/10/05 03:37:25;;;;;;;5.43;2.50;;;8.50;99.90;;;;;;4996057;28;20199;-30
2023/10/05 03:40:22;;;;;;;3.50;2.50;;;8.50;99.90;;;;;;5026209;28;20206;-30
2023/10/05 03:42:59;;;;;;;4.47;2.47;;;8.50;99.90;;;;;;5048004;28;20174;-32
2023/10/05 03:45:55;;;;;;;4.80;2.57;;;8.60;99.90;;;;;;5045497;28;20195;-30
2023/10/05 03:48:51;;;;;;;5.53;2.97;;;8.60;99.90;;;;;;5049451;28;20170;-31
2023/10/05 03:52:07;;;;;;;4.67;2.70;;;8.60;99.90;;;;;;5060086;28;20229;-30
2023/10/05 03:55:11;;;;;;;3.80;2.60;;;8.60;99.90;;;;;;5014870;28;20225;-30
2023/10/05 03:58:01;;;;;;;4.20;2.20;;;8.60;99.90;;;;;;5027231;28;20201;-30
2023/10/05 04:00:35;;;;;;;4.47;2.53;;;8.60;99.90;;;;;;5003701;28;20174;-30
2023/10/05 04:03:02;;;;;;;4.63;2.67;;;8.60;99.90;;;;;;5014366;28;20298;-30
2023/10/05 04:05:28;;;;;;;4.60;3.17;;;8.60;99.90;;;;;;4998389;28;20246;-29
2023/10/05 04:08:10;;;;;;;7.17;3.00;;;8.60;99.90;;;;;;5016409;28;20194;-30
2023/10/05 04:10:49;;;;;;;7.30;3.13;;;8.60;99.90;;;;;;5003889;28;20237;-30
2023/10/05 04:13:21;;;;;;;3.20;2.40;;;8.60;99.90;;;;;;5018554;28;20642;-29
2023/10/05 04:15:47;;;;;;;6.60;3.00;;;8.60;99.90;;;;;;5007835;28;20210;-30
2023/10/05 04:18:15;;;;;;;4.40;2.90;;;8.60;99.90;;;;;;5007085;28;20175;-30
2023/10/05 04:20:44;;;;;;;4.90;2.80;;;8.60;99.90;;;;;;5009912;28;20217;-30
2023/10/05 04:23:15;;;;;;;3.37;2.33;;;8.70;99.90;;;;;;5002493;28;20197;-30
2023/10/05 04:25:41;;;;;;;6.10;3.13;;;8.70;99.90;;;;;;5031080;28;20205;-30
2023/10/05 04:28:07;;;;;;;6.60;3.67;;;8.70;99.90;;;;;;5009720;28;20193;-30
2023/10/05 04:30:33;;;;;;;4.07;2.93;;;8.70;99.90;;;;;;5024611;28;20234;-30
2023/10/05 04:32:59;;;;;;;4.20;2.90;;;8.70;99.90;;;;;;5009467;28;20182;-30
2023/10/05 04:35:29;;;;;;;4.47;2.70;;;8.80;99.90;;;;;;5019815;28;20248;-30
2023/10/05 04:37:56;;;;;;;7.07;2.80;;;8.70;99.90;;;;;;5000140;28;20190;-30
2023/10/05 04:40:24;;;;;;;3.70;2.60;;;8.70;99.90;;;;;;5027858;28;20171;-31
2023/10/05 04:42:51;;;;;;;3.33;2.73;;;8.80;99.90;;;;;;5007641;28;20190;-30
2023/10/05 04:45:20;;;;;;;4.07;2.80;;;8.80;99.90;;;;;;5032872;28;20210;-30
2023/10/05 04:47:48;;;;;;;4.60;2.93;;;8.70;99.90;;;;;;5035769;28;20177;-31
2023/10/05 04:50:15;;;;;;;6.67;2.77;;;8.70;99.90;;;;;;5028040;28;20296;-30
2023/10/05 04:52:45;;;;;;;3.93;2.50;;;8.70;99.90;;;;;;5009218;28;20198;-30
2023/10/05 04:55:30;;;;;;;4.57;2.57;;;8.70;99.90;;;;;;5035852;28;20187;-30
2023/10/05 05:01:15;;;;;;;6.33;3.23;;;8.80;99.90;;;;;;5011024;28;20226;-30
2023/10/05 05:03:55;;;;;;;4.83;2.90;;;8.80;99.90;;;;;;5029905;28;20182;-31
2023/10/05 05:06:25;;;;;;;4.93;2.70;;;8.80;99.90;;;;;;4997970;28;20234;-30
2023/10/05 05:08:53;;;;;;;4.17;2.67;;;8.80;99.90;;;;;;5016262;28;20178;-31
2023/10/05 05:11:19;;;;;;;3.77;2.60;;;8.80;99.90;;;;;;5026639;28;20201;-29
2023/10/05 05:13:46;;;;;;;3.70;2.50;;;8.80;99.90;;;;;;5006039;28;20710;-30
2023/10/05 05:16:15;;;;;;;4.17;2.70;;;8.70;99.90;;;;;;5032479;28;20750;-30
2023/10/05 05:18:42;;;;;;;2.97;2.40;;;8.70;99.90;;;;;;5023685;28;20178;-30
2023/10/05 05:21:08;;;;;;;3.37;2.70;;;8.70;99.90;;;;;;5025627;28;20182;-31
2023/10/05 05:23:35;;;;;;;3.30;2.37;;;8.70;99.90;;;;;;5005885;28;20189;-31
2023/10/05 05:26:03;;;;;;;3.17;2.50;;;8.70;99.90;;;;;;5008254;28;20198;-29
2023/10/05 05:28:30;;;;;;;4.37;2.73;;;8.70;99.90;;;;;;5025479;28;20205;-30
2023/10/05 05:31:04;;;;;;;4.43;2.73;;;8.70;99.90;;;;;;5023311;28;20289;-30
2023/10/05 05:33:30;;;;;;;4.03;2.70;;;8.70;99.90;;;;;;5027556;28;20246;-30
2023/10/05 05:35:56;;;;;;;3.43;2.60;;;8.70;99.90;;;;;;5001950;28;20206;-30
2023/10/05 05:38:22;;;;;;;4.50;2.80;;;8.70;99.90;;;;;;4997567;28;20179;-30
2023/10/05 05:40:49;;;;;;;4.73;3.00;;;8.70;99.90;;;;;;5024277;28;20283;-30
2023/10/05 05:43:15;;;;;;;4.13;3.10;;;8.50;99.90;;;;;;5025365;28;20181;-30
2023/10/05 05:45:43;;;;;;;4.00;2.63;;;8.50;99.90;;;;;;5022916;28;20206;-30
2023/10/05 05:48:16;;;;;;;2.90;2.60;;;8.60;99.90;;;;;;5024548;28;20186;-31
2023/10/05 05:50:43;;;;;;;6.00;2.70;;;8.60;99.90;;;;;;5007685;28;20300;-31
2023/10/05 05:53:12;;;;;;;5.93;2.53;;;8.60;99.90;;;;;;5008268;28;20201;-31
2023/10/05 05:55:52;;;;;;;3.73;2.43;;;8.60;99.90;;;;;;5005922;28;20193;-31
2023/10/05 05:58:19;;;;;;;3.83;2.90;;;8.60;99.90;;;;;;5009065;28;20264;-30
2023/10/05 06:00:47;;;;;;;4.07;2.70;;;8.70;99.90;;;;;;5025118;28;20231;-30
2023/10/05 06:03:14;;;;;;;6.77;3.00;;;8.70;99.90;;;;;;5023273;28;20178;-30
2023/10/05 06:05:40;;;;;;;6.03;2.90;;;8.70;99.90;;;;;;5001270;28;20713;-31
2023/10/05 06:08:09;;;;;;;3.37;2.33;;;8.60;99.90;;;;;;4999144;28;20190;-31
2023/10/05 06:10:35;;;;;;;5.07;2.63;;;8.60;99.90;;;;;;5015669;28;20252;-31
2023/10/05 06:13:01;;;;;;;3.47;2.60;;;8.60;99.90;;;;;;5016555;28;20178;-30
2023/10/05 06:15:29;;;;;;;4.13;2.70;;;8.60;99.90;;;;;;5021555;28;20217;-30
2023/10/05 06:17:54;;;;;;;5.07;3.50;;;8.60;99.90;;;;;;5009065;28;20268;-29
2023/10/05 06:20:20;;;;;;;5.57;2.87;;;8.60;99.90;;;;;;5020290;28;20214;-30
2023/10/05 06:22:47;;;;;;;3.30;2.57;;;8.60;99.90;;;;;;5021239;28;20189;-30
2023/10/05 06:25:18;;;;;;;4.17;3.40;;;8.60;99.90;;;;;;5019974;28;20197;-30
2023/10/05 06:27:44;;;;;;;5.70;3.10;;;8.70;99.90;;;;;;5036546;28;20209;-30
2023/10/05 06:30:11;;;;;;;5.83;2.70;;;8.80;99.90;;;;;;5012524;28;20659;-31
2023/10/05 06:32:38;;;;;;;5.17;2.97;;;8.80;99.90;;;;;;5028742;28;20639;-31
2023/10/05 06:35:09;;;;;;;5.57;3.17;;;8.90;99.90;;;;;;5016867;28;20206;-31
2023/10/05 06:37:41;;;;;;;5.63;3.00;;;9.00;99.90;;;;;;5017067;28;20179;-31
2023/10/05 06:40:21;;;;;;;4.43;3.07;;;9.00;99.90;;;;;;5003018;28;20186;-31
2023/10/05 06:42:49;;;;;;;4.90;2.80;;;9.10;99.90;;;;;;5004403;28;20213;-31
2023/10/05 06:45:16;;;;;;;4.00;2.90;;;9.00;99.90;;;;;;5030522;28;20194;-30
2023/10/05 06:47:42;;;;;;;5.00;2.93;;;9.10;99.90;;;;;;5012118;28;20174;-30
2023/10/05 06:50:09;;;;;;;4.40;2.90;;;9.20;99.90;;;;;;5026150;28;20181;-30
2023/10/05 06:52:39;;;;;;;7.60;3.43;;;9.30;99.90;;;;;;5030968;28;20178;-31
2023/10/05 06:55:12;;;;;;;6.37;3.00;;;9.20;99.90;;;;;;5031685;28;20194;-31
2023/10/05 06:57:44;;;;;;;4.77;2.53;;;9.30;99.90;;;;;;5028353;28;20208;-31
2023/10/05 07:00:16;;;;;;;5.70;3.23;;;9.30;99.90;;;;;;5025364;28;21086;-31
2023/10/05 07:02:48;;;;;;;4.63;3.20;;;9.40;99.90;;;;;;5023563;28;20185;-31
2023/10/05 07:05:14;;;;;;;10.93;3.20;;;9.50;99.90;;;;;;5004343;28;20248;-31
2023/10/05 07:07:40;;;;;;;5.67;3.13;;;9.50;99.90;;;;;;5000074;28;20181;-31
2023/10/05 07:10:10;;;;;;;4.10;3.13;;;9.60;99.90;;;;;;5000202;28;20176;-31
2023/10/05 07:12:41;;;;;;;6.00;3.40;;;9.60;99.90;;;;;;5021794;28;20178;-31
2023/10/05 07:15:09;;;;;;;5.00;3.13;;;9.60;99.90;;;;;;5025736;28;20190;-31
2023/10/05 07:17:35;;;;;;;5.87;3.00;;;9.70;99.90;;;;;;5030458;28;20292;-31
2023/10/05 07:20:01;;;;;;;4.73;2.97;;;9.70;99.90;;;;;;5011504;28;20249;-31
2023/10/05 07:22:28;;;;;;;5.80;3.10;;;9.80;99.90;;;;;;5009370;28;20173;-31
2023/10/05 07:24:54;;;;;;;3.97;3.03;;;9.90;99.90;;;;;;5015967;28;20229;-31
2023/10/05 07:27:20;;;;;;;4.47;3.00;;;10.00;99.90;;;;;;5000436;28;20217;-31
2023/10/05 07:29:46;;;;;;;4.70;3.00;;;10.10;99.90;;;;;;5023209;28;20178;-31
2023/10/05 07:32:16;;;;;;;6.23;3.60;;;10.10;99.90;;;;;;5009079;28;20290;-31
2023/10/05 07:34:43;;;;;;;6.83;3.00;;;10.20;99.90;;;;;;5024081;28;20222;-31
2023/10/05 07:37:12;;;;;;;4.80;2.93;;;10.30;99.90;;;;;;4998991;28;20179;-30
2023/10/05 07:39:42;;;;;;;4.60;3.37;;;10.40;99.90;;;;;;4999701;28;20171;-31
2023/10/05 07:42:10;;;;;;;9.20;3.60;;;10.50;99.90;;;;;;5024189;28;20198;-31
2023/10/05 07:44:37;;;;;;;4.70;2.80;;;10.60;99.90;;;;;;5006041;28;20171;-31
2023/10/05 07:47:05;;;;;;;5.63;3.03;;;10.70;99.90;;;;;;5032920;28;20658;-31
2023/10/05 07:49:34;;;;;;;5.37;3.43;;;10.80;99.90;;;;;;5011838;28;20194;-31
2023/10/05 07:52:02;;;;;;;6.03;3.10;;;11.00;99.90;;;;;;5006375;28;20214;-31
2023/10/05 07:54:27;;;;;;;7.70;3.37;;;11.00;99.90;;;;;;5011672;28;20175;-31
2023/10/05 07:56:53;;;;;;;6.37;2.93;;;11.10;99.90;;;;;;5014859;28;20187;-31
2023/10/05 07:59:21;;;;;;;4.47;3.00;;;11.10;99.90;;;;;;5023778;28;20227;-31
2023/10/05 08:01:49;;;;;;;4.37;3.53;;;11.20;99.90;;;;;;5016424;28;20184;-31
2023/10/05 08:04:15;;;;;;;6.33;3.40;;;11.30;99.90;;;;;;5017825;28;20236;-31
2023/10/05 08:09:29;;;;;;;5.10;3.40;;;11.40;99.90;;;;;;4941628;29;20226;-28
2023/10/05 08:11:59;;;;;;;6.23;3.47;;;11.50;99.90;;;;;;4945286;29;20286;-28
2023/10/05 08:14:26;;;;;;;8.80;5.53;;;11.50;99.90;;;;;;4948116;29;20214;-28
2023/10/05 08:16:55;;;;;;;8.07;5.87;;;11.50;99.90;;;;;;4950554;28;20198;-28
2023/10/05 08:19:24;;;;;;;6.80;3.30;;;11.60;99.90;;;;;;4937509;29;20221;-28
2023/10/05 08:21:52;;;;;;;8.80;4.40;;;11.60;99.90;;;;;;4937683;29;20274;-28
2023/10/05 08:24:18;;;;;;;6.30;3.83;;;11.70;99.90;;;;;;4953398;28;20192;-28
2023/10/05 08:26:45;;;;;;;5.03;3.43;;;11.80;99.90;;;;;;4926540;29;20222;-28
2023/10/05 08:29:11;;;;;;;6.30;3.53;;;11.90;99.90;;;;;;4949317;29;20234;-29
2023/10/05 08:31:37;;;;;;;8.07;3.70;;;12.00;99.90;;;;;;4953032;29;20265;-28
2023/10/05 08:34:03;;;;;;;5.33;3.33;;;12.10;99.90;;;;;;4953265;29;20188;-28
2023/10/05 08:36:30;;;;;;;6.13;3.17;;;12.10;99.90;;;;;;4937201;29;20209;-28
2023/10/05 08:38:56;;;;;;;6.60;3.47;;;12.00;99.90;;;;;;4932193;29;20219;-27
2023/10/05 08:41:36;;;;;;;5.10;3.33;;;12.00;99.90;;;;;;4932328;29;20262;-27
2023/10/05 08:44:10;;;;;;;6.67;3.50;;;12.10;99.90;;;;;;4937357;29;20198;-28
2023/10/05 08:46:43;;;;;;;7.37;4.13;;;12.10;99.90;;;;;;4940684;29;20212;-28
2023/10/05 08:49:10;;;;;;;5.70;3.47;;;12.20;99.90;;;;;;4952194;28;20200;-28
2023/10/05 08:51:39;;;;;;;5.77;3.50;;;12.30;99.90;;;;;;4942383;29;20240;-28
2023/10/05 08:54:09;;;;;;;4.90;3.50;;;12.30;99.90;;;;;;4936746;29;20187;-28
2023/10/05 08:56:47;;;;;;;5.47;3.90;;;12.40;99.90;;;;;;4942460;28;20223;-28
2023/10/05 08:59:14;;;;;;;8.27;4.23;;;12.50;99.90;;;;;;4953212;29;20278;-29
2023/10/05 09:01:45;;;;;;;5.00;3.60;;;12.70;99.90;;;;;;4953022;29;20212;-28
2023/10/05 09:06:55;;;;;;;5.50;4.00;;;12.90;99.90;;;;;;4938847;29;20209;-28
2023/10/05 09:09:39;;;;;;;5.13;3.87;;;13.00;99.90;;;;;;4944093;29;20201;-28
2023/10/05 09:12:34;;;;;;;7.50;3.27;;;13.00;99.90;;;;;;4920730;29;20301;-29
2023/10/05 09:15:50;;;;;;;5.37;3.37;;;13.10;99.90;;;;;;4932327;29;20201;-28
2023/10/05 09:18:05;;;;;;;6.43;3.67;;;13.20;99.90;;;;;;4945470;29;20276;-29
2023/10/05 09:20:36;;;;;;;6.67;3.43;;;13.40;99.90;;;;;;4936457;29;20200;-28
2023/10/05 09:23:09;;;;;;;5.13;3.77;;;13.50;99.90;;;;;;4950612;29;20189;-28
2023/10/05 09:25:48;;;;;;;5.03;3.47;;;13.60;99.90;;;;;;4932063;29;20348;-28
2023/10/05 09:28:51;;;;;;;4.73;3.40;;;13.70;99.90;;;;;;4950346;29;20255;-29
2023/10/05 09:31:19;;;;;;;4.37;3.40;;;13.80;99.90;;;;;;4951428;29;20240;-29
2023/10/05 09:33:53;;;;;;;5.57;3.37;;;14.00;99.90;;;;;;4928837;29;20249;-29
2023/10/05 09:36:22;;;;;;;6.00;3.50;;;14.10;99.90;;;;;;4934955;29;20284;-28
2023/10/05 09:38:51;;;;;;;7.07;3.30;;;14.30;99.90;;;;;;4921941;29;20269;-28
2023/10/05 09:41:19;;;;;;;7.27;3.17;;;14.40;99.90;;;;;;4938926;29;20182;-29
2023/10/05 09:43:55;;;;;;;4.50;3.00;;;14.50;99.90;;;;;;4937643;29;20233;-29
2023/10/05 09:46:22;;;;;;;7.03;3.30;;;14.70;99.90;;;;;;4937622;29;20217;-29
2023/10/05 09:48:49;;;;;;;6.33;3.20;;;14.80;99.90;;;;;;4935676;29;20193;-29
2023/10/05 09:51:15;;;;;;;7.90;3.57;;;14.90;99.90;;;;;;4916554;29;20202;-29
2023/10/05 09:53:43;;;;;;;4.63;3.00;;;15.00;99.90;;;;;;4934745;29;20703;-29
2023/10/05 09:56:13;;;;;;;5.97;3.13;;;15.10;99.90;;;;;;4932166;29;20201;-29
2023/10/05 09:58:41;;;;;;;6.30;2.90;;;15.30;99.90;;;;;;4931944;29;20185;-29
2023/10/05 10:01:10;;;;;;;4.33;3.10;;;15.40;99.90;;;;;;4918616;29;20214;-29
2023/10/05 10:03:39;;;;;;;4.80;2.83;;;15.50;99.90;;;;;;4934414;28;20280;-29
2023/10/05 10:06:10;;;;;;;6.23;2.93;;;15.60;99.90;;;;;;4932800;29;20218;-29
2023/10/05 10:08:55;;;;;;;10.10;2.60;;;15.70;99.90;;;;;;4934926;29;20205;-29
2023/10/05 10:11:27;;;;;;;4.90;2.80;;;15.80;99.90;;;;;;4938285;29;20218;-29
2023/10/05 10:14:15;;;;;;;4.70;2.97;;;15.90;99.90;;;;;;4931822;29;20269;-29
2023/10/05 10:16:43;;;;;;;3.37;2.13;;;16.10;99.90;;;;;;4918730;29;20282;-29
2023/10/05 10:19:23;;;;;;;4.63;2.73;;;16.20;99.90;;;;;;4937449;29;20241;-29
2023/10/05 10:21:59;;;;;;;5.33;2.90;;;16.30;99.90;;;;;;4936537;29;20196;-29
2023/10/05 10:24:28;;;;;;;5.73;2.97;;;16.50;99.90;;;;;;4937668;29;20193;-29
2023/10/05 10:27:15;;;;;;;4.80;3.03;;;16.60;99.90;;;;;;4932261;29;20214;-29
2023/10/05 10:29:53;;;;;;;6.03;2.80;;;16.70;99.90;;;;;;4934629;29;20193;-28
2023/10/05 10:32:22;;;;;;;6.35;3.08;;;16.80;99.90;;;;;;4939990;29;20216;-29
2023/10/05 10:35:07;;;;;;;6.47;2.80;;;16.90;99.90;;;;;;4935924;29;20185;-29
2023/10/05 10:37:38;;;;;;;7.30;2.60;;;16.90;99.90;;;;;;4916347;29;20182;-29
2023/10/05 10:40:12;;;;;;;5.77;2.70;;;16.90;99.90;;;;;;4925913;29;20240;-30
2023/10/05 10:43:12;;;;;;;4.85;2.45;;;17.00;99.90;;;;;;4944865;29;20248;-29
2023/10/05 10:45:44;;;;;;;6.60;2.38;;;17.20;99.90;;;;;;4922838;29;20277;-29
2023/10/05 10:48:20;;;;;;;5.28;2.30;;;17.40;99.90;;;;;;4923566;29;20193;-29
2023/10/05 10:50:51;;;;;;;4.18;2.17;;;17.50;99.90;;;;;;4937447;29;20235;-29
2023/10/05 10:53:18;;;;;;;6.05;2.28;;;17.60;99.90;;;;;;4940882;29;20181;-28
2023/10/05 10:55:58;;;;;;;6.70;2.42;;;17.70;99.90;;;;;;4927396;29;20202;-29
2023/10/05 10:58:30;;;;;;;5.68;2.70;;;17.70;99.90;;;;;;4939170;29;20189;-29
2023/10/05 11:01:04;;;;;;;5.45;2.28;;;17.70;99.90;;;;;;4947497;29;20225;-29
2023/10/05 11:03:32;;;;;;;5.93;2.40;;;17.80;99.90;;;;;;4946079;29;20196;-28
2023/10/05 11:06:00;;;;;;;6.30;2.47;;;17.80;99.90;;;;;;4943412;29;20202;-29
2023/10/05 11:08:30;;;;;;;5.13;2.83;;;17.90;99.90;;;;;;4934056;29;20212;-28
2023/10/05 11:11:09;;;;;;;5.85;3.65;;;17.90;99.90;;;;;;4952809;28;20212;-29
2023/10/05 11:13:43;;;;;;;6.22;3.35;;;17.90;99.90;;;;;;4935225;29;20181;-29
2023/10/05 11:16:09;;;;;;;6.55;3.50;;;17.90;99.90;;;;;;4954644;28;20241;-29
2023/10/05 11:18:39;;;;;;;7.18;3.00;;;17.80;99.90;;;;;;4954377;29;20181;-29
2023/10/05 11:21:16;;;;;;;4.78;2.88;;;17.80;99.90;;;;;;4936894;29;20193;-28
2023/10/05 11:23:47;;;;;;;6.85;2.97;;;17.90;99.90;;;;;;4950617;29;20205;-29
2023/10/05 11:26:33;;;;;;;5.80;3.08;;;17.90;99.90;;;;;;4937949;29;20210;-28
2023/10/05 11:29:15;;;;;;;5.28;2.92;;;17.90;99.90;;;;;;4925380;29;20185;-29
2023/10/05 11:31:41;;;;;;;6.70;3.03;;;17.90;99.90;;;;;;4945725;29;20212;-29
2023/10/05 11:34:12;;;;;;;6.80;2.80;;;17.80;99.90;;;;;;4953545;29;20182;-29
2023/10/05 11:36:44;;;;;;;6.05;2.97;;;17.70;99.90;;;;;;4936789;29;20206;-29
2023/10/05 11:39:21;;;;;;;4.97;2.70;;;17.80;99.90;;;;;;4942720;29;20284;-29
2023/10/05 11:41:51;;;;;;;6.65;2.85;;;17.80;99.90;;;;;;4948448;29;20182;-29
2023/10/05 11:44:23;;;;;;;6.00;2.78;;;17.80;99.90;;;;;;4944054;29;20275;-29
2023/10/05 11:46:53;;;;;;;5.43;3.10;;;17.90;99.90;;;;;;4927399;29;20209;-29
2023/10/05 11:49:20;;;;;;;6.47;3.10;;;18.00;99.90;;;;;;4934472;29;20190;-29
2023/10/05 11:51:59;;;;;;;4.90;2.70;;;18.20;99.90;;;;;;4939920;29;20213;-29
2023/10/05 11:54:29;;;;;;;5.28;3.20;;;18.30;99.90;;;;;;4938398;29;20201;-29
2023/10/05 11:57:04;;;;;;;5.18;2.58;;;18.40;99.90;;;;;;4942469;29;20206;-29
2023/10/05 11:59:38;;;;;;;7.97;3.00;;;18.50;99.90;;;;;;4936096;29;20187;-29
2023/10/05 12:02:08;;;;;;;6.25;3.45;;;18.70;99.90;;;;;;4953891;29;20191;-29
2023/10/05 12:04:39;;;;;;;5.78;2.83;;;18.70;99.90;;;;;;4945070;28;20205;-29
2023/10/05 12:07:12;;;;;;;5.55;2.97;;;18.90;99.90;;;;;;4930910;29;20216;-29
2023/10/05 12:09:43;;;;;;;6.60;3.20;;;18.90;99.90;;;;;;4938416;29;20185;-28
2023/10/05 12:12:13;;;;;;;5.72;3.00;;;19.20;99.90;;;;;;4948222;29;20220;-30
2023/10/05 12:14:41;;;;;;;5.20;2.53;;;19.40;99.90;;;;;;4940907;29;20252;-28
2023/10/05 12:17:07;;;;;;;8.75;2.90;;;19.40;99.90;;;;;;4932981;29;20205;-29
2023/10/05 12:19:35;;;;;;;5.38;3.05;;;19.40;99.90;;;;;;4936350;29;20178;-29
2023/10/05 12:22:02;;;;;;;5.05;2.60;;;19.30;99.90;;;;;;4946725;29;20229;-29
2023/10/05 12:24:30;;;;;;;5.75;2.78;;;19.30;99.90;;;;;;4932237;29;20193;-30
2023/10/05 12:27:04;;;;;;;6.32;3.00;;;19.40;99.90;;;;;;4932380;29;20233;-30
2023/10/05 12:29:30;;;;;;;5.57;2.80;;;19.40;99.90;;;;;;4933436;29;20189;-29
2023/10/05 12:32:06;;;;;;;5.38;2.63;;;19.40;99.90;;;;;;4932809;29;20213;-29
2023/10/05 12:34:32;;;;;;;6.80;3.03;;;19.50;99.90;;;;;;4932361;29;20261;-29
2023/10/05 12:36:57;;;;;;;5.45;2.90;;;19.50;99.90;;;;;;4939410;29;20285;-29
2023/10/05 12:39:27;;;;;;;6.18;2.70;;;19.50;99.90;;;;;;4937469;29;20177;-28
2023/10/05 12:41:57;;;;;;;6.22;3.03;;;19.40;99.90;;;;;;4942129;29;20186;-29
2023/10/05 12:44:23;;;;;;;5.40;2.60;;;19.50;99.90;;;;;;4920001;29;20190;-28
2023/10/05 12:46:49;;;;;;;4.45;2.60;;;19.40;99.90;;;;;;4930199;28;20380;-29
2023/10/05 12:49:17;;;;;;;5.28;3.30;;;19.40;99.90;;;;;;4930557;29;20185;-29
2023/10/05 12:51:45;;;;;;;6.30;3.05;;;19.30;99.90;;;;;;4936956;29;20217;-29
2023/10/05 12:54:28;;;;;;;8.38;3.28;;;19.30;99.90;;;;;;4940335;29;20186;-28
2023/10/05 12:56:58;;;;;;;6.00;3.10;;;19.30;99.90;;;;;;4925065;29;20289;-29
2023/10/05 12:59:24;;;;;;;4.88;2.63;;;19.20;99.90;;;;;;4932941;29;20190;-28
2023/10/05 13:01:51;;;;;;;5.88;2.90;;;19.10;99.90;;;;;;4919351;29;20192;-29
2023/10/05 13:04:20;;;;;;;6.63;3.00;;;19.00;99.90;;;;;;4935989;29;20193;-28
2023/10/05 13:06:46;;;;;;;5.90;2.85;;;19.00;99.90;;;;;;4927629;29;20202;-29
2023/10/05 13:09:13;;;;;;;4.30;2.85;;;18.90;99.90;;;;;;4932905;29;20198;-29
2023/10/05 13:11:44;;;;;;;5.10;2.70;;;18.80;99.90;;;;;;4937566;29;20205;-29
2023/10/05 13:14:19;;;;;;;3.58;2.50;;;18.90;99.90;;;;;;4933838;29;20647;-29
2023/10/05 13:16:48;;;;;;;5.97;2.95;;;18.80;99.90;;;;;;4916980;29;20208;-29
2023/10/05 13:19:14;;;;;;;5.40;2.83;;;18.70;99.90;;;;;;4934266;29;20190;-28
2023/10/05 13:21:42;;;;;;;5.38;2.55;;;18.70;99.90;;;;;;4943511;29;20183;-29
2023/10/05 13:24:11;;;;;;;5.25;2.85;;;18.50;99.90;;;;;;4927701;29;20182;-29
2023/10/05 13:26:46;;;;;;;5.00;2.95;;;18.50;99.90;;;;;;4922538;29;20229;-29
2023/10/05 13:29:16;;;;;;;6.20;2.80;;;18.50;99.90;;;;;;4926938;29;20195;-29
2023/10/05 13:31:46;;;;;;;4.97;2.55;;;18.40;99.90;;;;;;4933363;29;20209;-29
2023/10/05 13:34:16;;;;;;;4.70;2.45;;;18.40;99.90;;;;;;4933597;29;20264;-29
2023/10/05 13:36:43;;;;;;;5.65;2.42;;;18.40;99.90;;;;;;4930932;29;20217;-29